Terminal Aerodrome Forecast
Issued by NWS

Home | Current Version | Previous Version | Text Only | Print | Product List | Glossary On
Versions: 1 2 3 4 5 6 7 8 9 10 11 12 13 14 15 16 17
383
FTUS46 KSEW 262320
TAFCLM
TAF
KCLM 262320Z 2700/2724 29015KT P6SM BKN200
      TEMPO 2700/2704 29015G25KT
     FM270600 28009KT P6SM FEW022
     FM271100 28006KT P6SM OVC018
     FM271800 33007KT P6SM BKN022 BKN200
     FM272000 33009KT P6SM SCT200=

USA.gov is the U.S. government's official web portal to all federal, state and local government web resources and services.